Date,TemperatureHighF,TemperatureAvgF,TemperatureLowF,DewpointHighF,DewpointAvgF,DewpointLowF,HumidityHigh,HumidityAvg,HumidityLow,PressureMaxIn,PressureMinIn,WindSpeedMaxMPH,WindSpeedAvgMPH,GustSpeedMaxMPH,PrecipitationSumIn
2014-1-1,27,19,13,9,6,0,68,52,41,29.56,29.35,0,0,0,0.00
2014-1-2,16,12,6,8,4,-3,70,67,61,29.44,29.06,0,-5,0,0.00
2014-1-3,21,3,-6,3,-10,-23,63,51,38,29.56,29.06,0,-11,0,0.00
2014-1-4,36,21,-3,10,1,-20,47,38,32,29.47,29.18,4,-4,10,0.00
2014-1-5,41,30,22,39,15,6,93,51,40,29.35,28.67,4,1,7,0.17
2014-1-6,44,29,2,43,16,-13,98,61,35,29.00,28.47,6,1,14,0.08
2014-1-7,13,3,-4,-3,-12,-19,44,44,44,29.38,28.94,6,2,11,0.00
2014-1-8,31,14,4,8,-3,-12,45,40,31,29.56,29.35,4,1,6,0.00
2014-1-9,39,24,11,12,6,0,58,45,30,29.74,29.53,4,1,7,0.00
2014-1-10,40,33,26,32,24,12,83,69,46,29.56,29.18,5,2,8,0.04
2014-1-11,48,44,38,47,39,25,100,83,53,29.15,28.44,6,2,10,0.25
2014-1-12,39,34,27,27,23,19,75,62,54,29.15,28.64,6,2,13,0.00
2014-1-13,54,41,29,27,23,21,72,50,32,29.15,28.88,2,0,7,0.00
2014-1-14,44,39,25,39,30,21,87,72,50,29.03,28.82,0,0,2,0.00
2014-1-15,44,33,24,34,24,15,90,68,45,29.15,28.94,1,0,2,0.00
2014-1-16,48,31,20,18,13,7,66,45,29,29.15,29.00,0,0,2,0.00
2014-1-17,47,33,25,22,15,12,65,45,34,29.06,28.94,0,0,1,0.00
2014-1-18,31,25,14,26,15,4,82,64,47,29.03,28.94,0,0,1,0.00
2014-1-19,34,25,13,18,11,3,65,52,41,29.03,28.64,2,0,8,0.00
2014-1-20,33,25,11,25,13,0,75,57,50,29.15,28.64,7,1,13,0.00
2014-1-21,18,8,2,2,-6,-13,56,50,43,29.26,29.12,4,2,6,0.00
2014-1-22,20,3,-8,1,-14,-22,44,41,37,29.23,29.12,6,1,8,0.00
2014-1-23,25,10,2,6,-8,-16,48,40,36,29.47,29.15,4,1,8,0.00
2014-1-24,28,11,0,5,-7,-15,44,39,32,29.50,28.91,5,2,10,0.00
2014-1-25,30,22,11,15,6,-3,70,48,35,28.91,28.41,6,3,15,0.00
2014-1-26,25,14,3,14,1,-7,60,53,37,28.94,28.67,4,2,9,0.00
2014-1-27,32,20,3,24,3,-16,73,44,31,29.26,28.50,6,2,13,0.00
2014-1-28,19,7,-2,-3,-13,-21,37,34,33,29.47,29.26,3,1,8,0.00
2014-1-29,30,10,-2,5,-11,-22,36,33,27,29.38,29.18,5,1,9,0.00
2014-1-30,39,17,-3,9,-5,-22,45,33,26,29.47,29.06,5,1,9,0.00
2014-1-31,39,30,23,16,9,2,54,39,33,29.35,29.06,4,0,6,0.00
2014-2-1,41,33,24,27,18,14,72,54,38,29.38,29.03,4,1,8,0.04
2014-2-2,41,34,29,29,24,16,76,67,39,29.35,29.00,4,1,7,0.00
2014-2-3,31,24,14,22,12,3,72,56,46,29.50,29.32,4,2,10,0.00
2014-2-4,34,23,14,14,9,3,72,52,38,29.62,29.38,3,0,17,0.00
2014-2-5,27,22,15,21,15,8,78,72,59,29.41,28.88,6,-4,10,0.00
2014-2-6,34,16,5,14,4,-5,70,55,39,29.47,29.35,4,1,6,0.00
2014-2-7,38,17,5,10,-1,-12,53,42,31,29.44,29.32,4,1,6,0.00
2014-2-8,32,9,-8,10,-9,-26,48,40,35,29.47,29.35,3,0,6,0.00
2014-2-9,24,14,1,13,2,-12,70,55,47,29.35,29.09,3,-4,5,0.00
2014-2-10,34,16,2,12,2,-14,65,51,36,29.44,29.21,4,1,7,0.00
2014-2-11,29,9,-2,10,-7,-17,56,43,36,29.68,29.44,5,-25,8,0.00
2014-2-12,40,12,-7,12,-7,-21,47,39,30,29.68,29.35,4,1,8,0.00
2014-2-13,28,20,12,18,9,-3,79,57,43,29.35,28.61,6,2,12,0.00
2014-2-14,43,29,23,23,17,14,82,61,40,28.91,28.53,6,2,12,0.00
2014-2-15,42,27,15,21,14,4,68,56,39,29.09,28.88,6,1,11,0.00
2014-2-16,24,16,9,8,3,-2,60,53,44,29.38,29.06,4,2,7,0.00
2014-2-17,44,18,-3,14,1,-13,60,46,28,29.59,29.15,5,1,9,0.00
2014-2-18,39,29,19,21,12,4,58,48,34,29.21,29.00,7,2,20,0.00
2014-2-19,53,36,18,31,22,7,74,55,41,29.26,28.76,6,2,10,0.04
2014-2-20,47,34,26,31,24,18,83,66,37,29.35,28.97,5,1,8,0.34
2014-2-21,46,40,35,37,28,16,90,64,39,29.00,28.76,5,1,10,0.24
2014-2-22,59,42,32,24,16,10,51,35,21,29.15,28.97,5,1,10,0.39
2014-2-23,59,40,26,23,17,5,52,39,22,29.15,29.03,3,1,8,0.00
2014-2-24,34,24,17,14,6,2,52,42,35,29.26,29.06,6,2,11,0.00
2014-2-25,35,20,15,10,4,0,54,45,33,29.23,29.06,4,1,7,0.00
2014-2-26,25,15,7,8,-3,-14,61,41,32,29.15,28.91,6,1,9,0.00
2014-2-27,28,13,4,8,-5,-13,51,39,32,29.26,28.70,7,2,14,0.00
2014-2-28,36,13,1,6,-8,-15,44,36,25,29.56,29.26,4,1,6,0.00
2014-3-1,44,27,10,15,4,-11,49,34,28,29.44,29.18,3,1,7,0.00
2014-3-2,34,20,10,16,6,-4,61,51,38,29.41,29.23,6,2,10,0.00
2014-3-3,28,10,-1,7,-6,-19,49,43,34,29.56,29.32,5,2,9,0.00
2014-3-4,29,13,-1,7,-5,-19,59,41,31,29.56,29.35,4,1,5,0.00
2014-3-5,31,18,7,12,5,-7,60,51,41,29.74,29.35,6,1,8,0.00
2014-3-6,45,18,-2,14,-2,-15,55,39,28,29.83,29.47,5,0,6,0.00
2014-3-7,57,33,18,23,11,-3,56,38,27,29.47,29.06,4,1,8,0.00
2014-3-8,44,33,27,25,21,15,77,61,41,29.18,29.00,4,1,20,0.00
2014-3-9,47,31,21,23,12,6,74,45,28,29.32,29.00,5,2,9,0.00
2014-3-10,61,42,31,32,21,11,61,43,32,29.00,28.70,4,0,8,0.00
2014-3-11,70,48,33,32,27,22,71,45,24,28.91,28.70,4,1,8,0.00
2014-3-12,40,29,13,33,23,6,92,79,62,28.88,28.47,6,2,14,0.00
2014-3-13,32,15,6,10,2,-6,73,54,34,29.29,28.82,7,3,14,0.00
2014-3-14,55,35,14,23,14,-3,57,41,28,29.26,28.79,4,1,8,0.00
2014-3-15,51,39,24,34,22,7,75,50,38,29.35,28.79,5,2,10,0.00
2014-3-16,38,22,12,10,4,-4,58,42,30,29.53,29.29,6,2,11,0.00
2014-3-17,47,22,9,15,2,-6,56,39,25,29.38,29.23,3,0,6,0.00
2014-3-18,58,31,13,19,8,-3,59,38,22,29.35,29.23,3,0,10,0.00
2014-3-19,52,40,31,35,20,9,87,50,27,29.32,28.88,7,2,11,0.00
2014-3-20,43,38,33,35,23,17,86,55,41,29.12,28.85,5,2,11,0.00
2014-3-21,50,34,26,22,15,12,57,43,30,29.29,29.09,5,2,9,0.00
2014-3-22,50,37,27,36,21,15,78,51,38,29.26,28.79,8,2,16,0.00
2014-3-23,33,26,16,20,10,0,61,47,41,29.44,29.21,6,3,13,0.00
2014-3-24,31,21,11,12,5,-1,65,46,34,29.47,29.29,6,1,8,0.00
2014-3-25,50,29,13,16,9,1,70,44,23,29.29,29.00,5,1,8,0.00
2014-3-26,31,22,15,16,6,0,68,48,35,29.44,29.12,9,3,17,0.00
2014-3-27,47,31,10,16,8,-4,59,37,27,29.50,29.15,3,1,6,0.00
2014-3-28,65,47,36,39,28,12,69,48,30,29.35,28.94,7,2,11,0.00
2014-3-29,45,37,33,34,29,24,100,72,51,29.44,29.03,5,2,8,0.00
2014-3-30,35,33,30,33,30,28,100,90,78,29.21,29.00,6,1,12,0.00
2014-3-31,58,39,28,31,26,18,84,61,34,29.38,29.21,6,2,10,0.00
2014-4-1,62,43,26,32,26,20,89,55,31,29.38,29.00,4,1,19,0.00
2014-4-2,70,46,32,31,25,19,74,46,22,29.38,29.12,6,2,10,0.00
2014-4-3,55,38,25,28,22,18,74,52,34,29.41,29.23,4,1,6,0.00
2014-4-4,52,43,34,44,36,20,92,76,54,29.21,28.76,5,2,10,0.00
2014-4-5,45,38,32,42,23,16,89,55,39,29.32,28.82,6,2,11,0.00
2014-4-6,69,43,24,30,20,14,72,42,23,29.41,29.29,4,1,8,0.00
2014-4-7,50,37,26,41,27,17,94,68,31,29.32,28.70,6,1,11,0.00
2014-4-8,53,45,34,48,37,28,100,75,48,28.88,28.50,6,2,14,0.00
2014-4-9,57,40,31,33,24,11,90,56,28,29.18,28.85,5,2,12,0.00
2014-4-10,75,52,29,32,25,17,70,38,19,29.21,28.94,6,2,12,0.00
2014-4-11,64,53,40,46,36,24,78,53,29,29.26,29.00,5,1,9,0.00
2014-4-12,84,54,36,46,35,28,100,57,20,29.41,29.23,3,1,6,0.00
2014-4-13,88,67,47,44,38,29,65,37,18,29.26,29.00,5,1,11,0.00
2014-4-14,84,64,52,56,46,39,83,56,23,29.03,28.79,8,2,10,0.00
2014-4-15,61,42,26,55,37,15,96,81,56,29.29,28.67,8,2,15,0.00
2014-4-16,50,32,23,20,13,9,64,44,28,29.74,29.29,6,2,10,0.00
2014-4-17,61,42,22,24,18,12,70,40,24,29.80,29.59,5,1,11,0.00
2014-4-18,71,51,37,32,26,19,57,39,23,29.65,29.32,6,2,9,0.00
2014-4-19,63,47,34,32,26,15,65,45,27,29.62,29.41,6,2,12,0.00
2014-4-20,78,52,30,34,24,17,77,39,16,29.65,29.35,2,0,5,0.00
2014-4-21,87,65,48,38,30,23,42,28,15,29.38,28.94,3,1,6,0.00
2014-4-22,70,56,44,57,38,28,76,52,36,28.97,28.70,7,1,15,0.00
2014-4-23,44,41,37,36,30,15,86,66,39,29.15,28.82,9,4,15,0.00
2014-4-24,62,45,33,25,17,12,47,34,21,29.32,29.18,7,3,13,0.00
2014-4-25,68,51,33,43,25,13,82,40,20,29.23,28.82,6,1,9,0.00
2014-4-26,64,47,38,44,35,29,87,63,42,29.15,28.88,6,2,15,0.00
2014-4-27,57,45,34,33,28,21,71,54,37,29.38,29.15,5,2,8,0.00
2014-4-28,71,49,30,36,28,22,87,48,24,29.41,29.18,4,1,9,0.00
2014-4-29,55,48,43,42,36,26,84,65,39,29.38,29.18,7,3,14,0.00
2014-4-30,54,49,44,50,43,36,92,80,68,29.38,29.03,6,3,13,0.00
2014-5-1,70,55,46,59,44,29,100,71,37,29.03,28.91,6,1,13,13.81
2014-5-2,67,52,45,41,36,31,77,56,31,29.03,28.88,6,1,8,0.00
2014-5-3,67,53,46,43,37,33,88,56,33,29.03,28.85,5,1,6,0.00
2014-5-4,63,51,43,42,29,22,87,46,28,29.15,28.88,9,3,15,0.00
2014-5-5,68,53,41,32,27,19,66,39,23,29.21,29.12,8,2,12,0.00
2014-5-6,70,54,41,35,27,19,59,38,23,29.35,29.12,6,1,10,0.00
2014-5-7,74,55,34,35,29,22,76,41,22,29.44,29.29,4,0,8,0.00
2014-5-8,85,66,50,50,43,30,74,46,29,29.35,29.18,3,0,6,0.00
2014-5-9,96,71,55,62,50,39,89,55,17,29.26,29.00,5,0,13,0.09
2014-5-10,80,68,56,59,46,24,93,52,24,29.15,29.00,4,1,9,0.00
2014-5-11,86,64,45,41,34,28,73,37,18,29.35,29.12,4,0,7,0.00
2014-5-12,90,67,50,60,47,35,84,53,23,29.32,29.21,1,0,4,0.04
2014-5-13,94,73,60,68,59,52,99,68,27,29.32,29.18,4,0,6,2.49
2014-5-14,93,72,59,66,58,49,100,70,28,29.35,29.21,4,0,6,1.00
2014-5-15,84,73,65,62,55,47,90,57,31,29.29,29.06,5,-3,10,0.29
2014-5-16,65,53,42,62,49,38,100,86,70,29.18,29.03,4,-5,6,1.67
2014-5-17,62,50,40,40,36,31,91,62,36,29.35,29.12,3,1,6,0.00
2014-5-18,70,54,43,45,35,26,86,54,24,29.47,29.38,4,1,7,0.00
2014-5-19,76,56,39,46,35,31,83,50,24,29.44,29.35,1,0,5,0.00
2014-5-20,86,57,48,45,40,33,75,57,20,29.38,29.23,1,-51,2,0.00
2014-5-21,69,63,57,59,53,43,89,71,44,29.21,29.00,0,-75,2,0.04
2014-5-22,87,67,57,64,53,40,98,65,29,29.12,28.97,4,0,8,0.00
2014-5-23,60,56,53,51,48,42,88,75,57,29.23,29.06,3,0,6,0.00
2014-5-24,80,63,53,54,47,38,89,60,27,29.35,29.21,3,0,6,0.00
2014-5-25,86,67,51,51,42,34,86,48,20,29.35,29.23,3,0,6,0.00
2014-5-26,92,74,60,48,41,36,52,33,19,29.29,29.12,3,0,8,0.00
2014-5-27,90,75,63,61,52,43,79,46,28,29.12,28.97,4,0,7,0.00
2014-5-28,68,60,56,64,51,43,88,71,49,29.35,29.00,4,1,7,0.00
2014-5-29,68,61,56,51,49,47,81,66,50,29.35,29.29,3,1,6,0.00
2014-5-30,82,65,52,58,46,39,94,57,27,29.38,29.29,4,1,10,0.00
2014-5-31,84,64,50,49,39,30,86,47,19,29.47,29.35,4,1,10,0.00
2014-6-1,88,68,49,47,40,35,78,42,19,29.53,29.32,3,1,5,0.00
2014-6-2,96,76,62,59,50,43,64,43,24,29.35,29.12,3,1,6,0.00
2014-6-3,83,74,65,71,58,46,82,60,37,29.15,28.97,3,1,6,0.00
2014-6-4,83,67,54,53,46,42,83,49,29,29.12,28.97,3,0,5,0.00
2014-6-5,78,61,51,48,42,39,75,52,30,29.09,28.94,3,1,6,0.00
2014-6-6,75,64,55,46,42,39,64,47,32,29.21,29.06,3,1,8,0.00
2014-6-7,93,69,52,52,44,39,82,46,18,29.29,29.12,4,1,6,0.00
2014-6-8,90,69,56,61,50,43,96,56,23,29.18,29.00,3,1,6,0.00
2014-6-9,73,66,61,62,60,59,96,81,64,29.18,29.06,3,1,6,0.00
2014-6-10,88,72,64,67,60,56,94,68,39,29.18,29.12,3,1,6,0.00
2014-6-11,82,70,66,67,62,58,92,75,48,29.18,29.09,4,1,10,0.00
2014-6-12,72,68,65,65,62,59,92,82,68,29.12,29.00,3,1,5,0.00
2014-6-13,88,70,64,73,63,53,98,80,44,29.06,28.88,3,0,6,0.00
2014-6-14,64,59,52,53,45,40,86,62,47,29.32,29.06,3,0,8,0.00
2014-6-15,85,65,51,53,48,44,89,59,30,29.41,29.29,1,0,4,0.00
2014-6-16,90,72,54,61,54,48,94,59,27,29.32,29.15,0,0,1,0.00
2014-6-17,95,77,65,66,60,52,91,61,28,29.26,29.00,1,0,2,0.00
2014-6-18,87,73,66,67,59,52,93,65,34,29.26,29.03,2,0,7,0.00
2014-6-19,85,71,56,65,46,30,93,48,23,29.35,29.18,2,0,6,0.00
2014-6-20,86,65,50,50,39,30,81,44,20,29.32,29.18,1,0,3,0.00
2014-6-21,86,65,49,50,41,35,80,47,21,29.21,29.12,1,0,3,0.00
2014-6-22,91,68,52,54,43,34,82,46,19,29.23,29.15,1,0,4,0.00
2014-6-23,88,73,56,54,50,43,80,49,30,29.26,29.15,1,0,3,0.00
2014-6-24,84,74,69,69,61,53,89,64,46,29.23,29.06,1,0,3,0.00
2014-6-25,74,70,67,72,68,66,99,95,89,29.15,29.06,0,0,2,0.00
2014-6-26,86,72,63,67,59,50,96,68,39,29.26,29.09,1,0,4,0.00
2014-6-27,95,74,60,65,53,44,93,56,21,29.38,29.23,0,0,2,0.00
2014-6-28,93,76,62,64,55,51,86,52,29,29.44,29.35,1,0,2,0.00
2014-6-29,96,79,68,60,57,54,66,49,28,29.38,29.23,1,0,4,0.00
2014-6-30,96,81,70,65,59,55,73,50,30,29.23,29.06,0,0,3,0.00
2014-7-1,95,82,72,68,63,55,84,55,31,29.09,28.91,1,0,5,0.00
2014-7-2,87,78,72,68,61,56,79,58,37,29.12,28.94,1,0,4,0.00
2014-7-3,90,72,64,66,63,56,91,75,37,29.21,29.12,0,0,1,0.00
2014-7-4,75,65,59,60,47,37,90,55,31,29.38,29.21,1,0,5,0.00
2014-7-5,86,70,58,46,40,36,57,36,20,29.41,29.29,1,0,6,0.00
2014-7-6,91,72,59,51,43,38,60,37,19,29.32,29.06,1,0,7,0.00
2014-7-7,79,70,62,71,60,46,88,70,49,29.06,28.88,0,0,6,0.00
2014-7-8,92,76,68,69,63,55,94,68,31,28.97,28.70,3,0,6,0.00
2014-7-9,90,71,62,60,54,46,79,58,28,29.21,28.88,2,0,5,0.21
2014-7-10,89,69,56,57,48,40,86,53,22,29.38,29.21,2,0,4,0.00
2014-7-11,93,71,54,54,47,42,80,47,19,29.44,29.35,1,0,5,0.00
2014-7-12,96,77,62,61,54,51,79,50,26,29.38,29.23,1,0,4,0.00
2014-7-13,77,72,68,70,64,54,91,74,56,29.23,29.00,1,0,6,0.16
2014-7-14,92,73,66,70,64,54,93,77,31,29.09,29.00,2,0,4,0.21
2014-7-15,81,71,67,69,61,41,96,74,35,29.00,28.88,3,0,7,0.57
2014-7-16,83,68,57,54,46,42,76,47,29,29.15,29.00,2,0,6,0.00
2014-7-17,75,65,55,54,45,38,78,50,28,29.32,29.12,2,0,5,0.00
2014-7-18,87,70,57,54,46,39,78,48,21,29.47,29.32,2,0,4,0.00
2014-7-19,80,68,59,61,53,47,84,61,34,29.44,29.32,0,0,2,0.04
2014-7-20,89,74,64,66,56,46,91,61,24,29.35,29.26,1,0,4,0.00
2014-7-21,92,75,66,66,59,52,88,62,30,29.35,29.29,2,0,4,0.00
2014-7-22,97,80,68,73,65,56,97,65,29,29.32,29.12,3,0,5,0.00
2014-7-23,96,75,66,70,62,54,83,67,29,29.15,29.00,4,0,8,0.00
2014-7-24,76,66,56,55,46,37,71,50,30,29.21,29.12,3,0,6,0.00
2014-7-25,87,68,55,54,48,44,86,54,25,29.26,29.12,1,0,2,0.00
2014-7-26,85,72,59,56,51,46,75,51,29,29.21,29.00,1,0,4,0.00
2014-7-27,93,79,69,66,55,46,77,48,24,29.00,28.82,2,0,6,0.00
2014-7-28,72,63,59,63,60,57,100,91,63,29.00,28.70,2,0,7,0.00
2014-7-29,70,62,56,57,50,43,90,65,40,29.21,29.00,0,0,1,0.00
2014-7-30,82,63,54,57,52,46,91,71,33,29.23,29.12,2,0,4,0.00
2014-7-31,83,67,58,64,55,46,97,70,31,29.32,29.18,2,0,6,0.00
2014-8-1,90,73,61,61,55,48,89,58,29,29.35,29.29,2,0,4,0.00
2014-8-2,91,73,62,64,57,50,94,61,30,29.35,29.23,2,0,4,1.95
2014-8-3,81,68,62,69,62,58,98,85,50,29.32,29.23,2,0,5,0.54
2014-8-4,91,72,63,70,62,52,100,78,31,29.32,29.23,2,0,3,0.00
2014-8-5,69,66,62,64,62,57,93,86,66,29.23,29.18,0,0,0,0.54
2014-8-6,85,68,59,66,51,36,97,61,29,29.18,29.12,4,0,7,0.00
2014-8-7,83,67,57,57,45,35,81,49,23,29.29,29.15,3,0,5,0.00
2014-8-8,84,67,57,55,45,39,77,48,23,29.35,29.23,1,0,3,0.00
2014-8-9,93,70,57,58,46,36,81,48,18,29.38,29.29,2,0,3,0.00
2014-8-10,93,72,59,58,48,40,78,48,19,29.38,29.29,1,0,3,0.00
2014-8-11,88,73,61,59,48,38,80,45,21,29.32,29.15,2,0,5,0.00
2014-8-12,73,68,64,64,55,40,87,65,33,29.15,28.94,2,0,5,0.41
2014-8-13,80,68,59,65,54,42,93,64,33,29.09,28.91,3,0,6,0.13
2014-8-14,77,62,53,48,39,32,69,44,23,29.92,29.00,10,0,18,0.00
2014-8-15,73,63,56,40,36,33,48,37,24,29.15,29.06,3,0,6,0.00
2014-8-16,76,65,56,50,41,35,66,44,31,29.15,29.03,2,0,4,0.00
2014-8-17,79,66,59,54,48,42,72,55,31,29.18,29.00,3,0,5,0.04
2014-8-18,80,65,56,52,46,40,72,52,31,29.18,29.06,3,0,6,0.00
2014-8-19,89,69,52,60,50,43,81,56,28,29.12,29.00,4,0,5,0.00
2014-8-20,81,70,66,66,62,55,88,75,45,29.18,29.06,1,0,4,0.25
2014-8-21,91,74,66,72,61,52,94,70,29,29.18,29.12,3,0,6,0.25
2014-8-22,91,72,64,67,60,52,91,70,30,29.21,29.12,2,0,4,0.04
2014-8-23,75,69,64,64,57,50,87,66,45,29.32,29.18,2,0,4,0.00
2014-8-24,92,70,58,62,50,43,88,54,21,29.41,29.29,3,0,4,0.00
2014-8-25,91,72,61,60,50,42,83,51,20,29.41,29.29,2,0,4,0.00
2014-8-26,92,74,59,56,49,44,78,47,21,29.35,29.21,2,0,4,0.00
2014-8-27,80,73,62,60,51,43,65,48,32,29.23,29.15,3,0,5,0.00
2014-8-28,73,63,55,49,41,33,68,48,26,29.32,29.18,3,1,6,0.00
2014-8-29,85,65,52,54,43,36,79,49,23,29.38,29.29,4,0,6,0.00
2014-8-30,91,72,56,58,49,44,72,47,22,29.35,29.18,3,0,5,0.00
2014-8-31,78,73,68,71,63,57,87,72,57,29.23,29.12,2,0,4,0.12
2014-9-1,93,77,65,70,59,50,91,60,27,29.21,29.06,2,0,4,0.00
2014-9-2,93,75,64,66,59,50,84,60,28,29.12,28.97,4,0,7,0.67
2014-9-3,89,71,61,66,51,38,92,57,19,29.32,29.09,2,0,5,0.00
2014-9-4,94,74,63,58,52,41,78,51,19,29.35,29.23,2,0,4,0.00
2014-9-5,97,79,65,67,56,47,84,50,21,29.32,29.12,3,0,5,0.00
2014-9-6,77,69,60,60,52,42,67,55,42,29.23,29.06,3,0,6,0.00
2014-9-7,82,67,54,48,39,33,67,39,21,29.44,29.23,3,1,6,0.00
2014-9-8,87,65,49,53,41,33,81,47,19,29.47,29.38,3,1,6,0.00
2014-9-9,82,67,56,49,43,38,59,44,30,29.47,29.29,2,0,5,0.00
2014-9-10,86,70,60,56,50,45,73,52,29,29.29,29.00,3,0,6,0.00
2014-9-11,75,67,58,64,49,39,79,53,35,29.29,28.88,3,1,8,0.04
2014-9-12,59,54,46,44,37,31,70,53,38,29.44,29.29,3,0,7,0.00
2014-9-13,67,52,43,58,40,34,87,65,34,29.44,29.21,5,0,9,0.13
2014-9-14,74,55,44,41,34,27,76,48,23,29.53,29.41,3,0,6,0.00
2014-9-15,79,60,51,42,37,33,59,45,21,29.44,29.32,2,0,5,0.00
2014-9-19,58,52,49,35,33,30,58,48,35,29.41,29.35,1,0,2,0.33
2014-9-20,75,60,49,47,44,35,72,57,34,29.35,29.15,2,1,4,0.00
2014-9-21,84,67,59,60,47,38,68,48,31,29.92,28.76,10,0,18,0.00